createdAt,value
2022-08-22T00:02:58.943Z,99588.91
2022-08-22T00:08:03.867Z,99585.82
2022-08-22T00:16:40.438Z,99583.43
2022-08-22T00:25:31.353Z,99590.00
2022-08-22T00:34:10.551Z,99596.34
2022-08-22T00:43:00.139Z,99593.42
2022-08-22T00:52:05.188Z,99597.74
2022-08-22T01:00:34.400Z,99608.85
2022-08-22T01:09:10.568Z,99610.27
2022-08-22T01:17:39.290Z,99610.95
2022-08-22T01:26:37.810Z,99608.63
2022-08-22T01:35:21.982Z,99604.81
2022-08-22T01:44:25.896Z,99602.30
2022-08-22T01:52:59.538Z,99609.64
2022-08-22T02:01:31.517Z,99607.45
2022-08-22T02:10:23.188Z,99609.75
2022-08-22T02:19:10.025Z,99606.19
2022-08-22T02:27:55.359Z,99604.45
2022-08-22T02:36:28.395Z,99602.36
2022-08-22T02:45:19.146Z,99599.42
2022-08-22T02:54:09.246Z,99609.33
2022-08-22T03:02:42.280Z,99618.08
2022-08-22T03:11:46.352Z,99626.83
2022-08-22T03:20:15.045Z,99624.86
2022-08-22T03:29:07.048Z,99627.05
2022-08-22T03:37:36.372Z,99628.65
2022-08-22T03:46:36.487Z,99641.20
2022-08-22T03:55:16.344Z,99643.73
2022-08-22T04:03:42.180Z,99641.45
2022-08-22T04:12:08.871Z,99649.23
2022-08-22T04:20:54.292Z,99651.00
2022-08-22T04:29:28.544Z,99662.35
2022-08-22T04:38:14.228Z,99672.05
2022-08-22T04:46:48.873Z,99674.48
2022-08-22T04:55:46.981Z,99676.43
2022-08-22T05:04:30.167Z,99673.21
2022-08-22T05:13:06.817Z,99683.80
2022-08-22T05:21:40.816Z,99683.75
2022-08-22T05:30:16.615Z,99691.40
2022-08-22T05:38:50.624Z,99697.55
2022-08-22T05:47:24.721Z,99703.48
2022-08-22T05:55:56.685Z,99707.45
2022-08-22T06:04:22.717Z,99714.75
2022-08-22T06:12:52.461Z,99710.56
2022-08-22T06:21:21.983Z,99711.23
2022-08-22T06:29:47.507Z,99710.29
2022-08-22T06:38:13.332Z,99715.58
2022-08-22T06:57:37.819Z,99735.91
2022-08-22T07:06:02.233Z,99729.67
2022-08-22T07:14:47.475Z,99733.81
2022-08-22T07:23:13.883Z,99740.93
2022-08-22T07:31:54.867Z,99750.05
2022-08-22T07:40:28.380Z,99755.88
2022-08-22T07:49:09.526Z,99758.29
2022-08-22T07:57:40.962Z,99764.06
2022-08-22T08:06:06.368Z,99768.19
2022-08-22T08:14:32.825Z,99766.88
2022-08-22T08:22:59.364Z,99768.49
2022-08-22T08:31:31.220Z,99766.57
2022-08-22T08:40:00.766Z,99767.41
2022-08-22T08:49:06.548Z,99775.35
2022-08-22T08:57:55.873Z,99774.98
2022-08-22T09:37:21.950Z,99767.41
2022-08-22T09:46:03.155Z,99767.38
2022-08-22T09:54:31.425Z,99764.06
2022-08-22T10:03:19.996Z,99757.43
2022-08-22T10:11:55.783Z,99757.10
2022-08-22T10:20:30.144Z,99755.83
2022-08-22T10:28:58.966Z,99753.96
2022-08-22T10:37:50.293Z,99750.05
2022-08-22T10:46:29.652Z,99750.52
2022-08-22T10:55:17.468Z,99751.38
2022-08-22T11:03:49.050Z,99751.91
2022-08-22T11:12:41.733Z,99743.19
2022-08-22T11:21:18.299Z,99737.79
2022-08-22T11:30:10.892Z,99736.38
2022-08-22T11:39:01.143Z,99742.41
2022-08-22T11:47:31.255Z,99739.23
2022-08-22T11:56:17.473Z,99749.34
2022-08-22T12:04:46.857Z,99747.52
2022-08-22T12:30:14.393Z,99736.39
2022-08-22T12:39:02.278Z,99734.46
2022-08-22T12:47:49.170Z,99729.00
2022-08-22T12:56:18.145Z,99722.58
2022-08-22T13:05:08.701Z,99723.30
2022-08-22T13:13:39.334Z,99724.20
2022-08-22T13:22:05.294Z,99723.62
2022-08-22T13:30:31.344Z,99717.68
2022-08-22T13:39:03.548Z,99716.61
2022-08-22T13:47:31.593Z,99707.98
2022-08-22T13:56:05.109Z,99702.47
2022-08-22T14:04:37.419Z,99702.11
2022-08-22T14:13:00.540Z,99704.28
2022-08-22T14:21:41.723Z,99705.13
2022-08-22T14:30:18.803Z,99698.32
2022-08-22T14:38:50.453Z,99699.52
2022-08-22T14:47:54.722Z,99693.36
2022-08-22T14:56:15.885Z,99679.42
2022-08-22T15:04:50.032Z,99679.46
2022-08-22T15:13:14.709Z,99678.82
2022-08-22T15:21:41.489Z,99680.95
2022-08-22T15:30:21.064Z,99683.02
2022-08-22T15:38:51.817Z,99680.38
2022-08-22T15:47:37.433Z,99675.48
2022-08-22T15:56:05.521Z,99676.30
2022-08-22T16:04:53.121Z,99678.38
2022-08-22T16:13:31.113Z,99679.26
2022-08-22T16:21:55.675Z,99691.85
2022-08-22T16:30:35.397Z,99695.55
2022-08-22T16:39:00.540Z,99694.00
2022-08-22T16:47:41.832Z,99694.71
2022-08-22T16:56:33.832Z,99708.94
2022-08-22T17:05:18.770Z,99712.79
2022-08-22T17:13:59.705Z,99729.23
2022-08-22T17:22:44.677Z,99743.80
2022-08-22T17:31:13.583Z,99750.40
2022-08-22T17:39:55.876Z,99759.73
2022-08-22T17:48:47.476Z,99771.55
2022-08-22T17:57:26.488Z,99772.39
2022-08-22T18:06:05.638Z,99774.38
2022-08-22T18:14:52.474Z,99777.41
2022-08-22T18:23:39.863Z,99774.92
2022-08-22T18:32:05.022Z,99787.15
2022-08-22T18:40:33.937Z,99779.37
2022-08-22T18:49:15.271Z,99779.45
2022-08-22T18:57:44.834Z,99781.48
2022-08-22T19:06:49.965Z,99775.14
2022-08-22T19:15:31.833Z,99776.77
2022-08-22T19:23:57.225Z,99776.27
2022-08-22T19:32:59.085Z,99790.41
2022-08-22T19:41:41.521Z,99799.37
2022-08-22T19:50:33.391Z,99798.91
2022-08-22T19:59:02.780Z,99807.59
2022-08-22T20:07:33.105Z,99805.66
2022-08-22T20:16:19.035Z,99806.45
2022-08-22T20:24:50.257Z,99810.55
2022-08-22T20:33:36.029Z,99804.29
2022-08-22T20:42:13.903Z,99788.08
2022-08-22T20:50:36.900Z,99782.78
2022-08-22T20:59:01.300Z,99780.30
2022-08-22T21:07:38.957Z,99780.33
2022-08-22T21:16:34.473Z,99780.64
2022-08-22T21:25:00.862Z,99786.94
2022-08-22T21:33:25.800Z,99788.64
2022-08-22T21:42:31.664Z,99774.60
2022-08-22T21:50:56.824Z,99771.73
2022-08-22T21:59:52.209Z,99765.29
2022-08-22T22:08:29.295Z,99762.35
2022-08-22T22:16:54.341Z,99755.31
2022-08-22T22:25:40.734Z,99750.15
2022-08-22T22:34:04.052Z,99748.80
2022-08-22T22:42:28.601Z,99743.70
2022-08-22T22:50:53.215Z,99746.77
2022-08-22T22:59:16.099Z,99746.29
